Time;durP1;ratioP1;P1;durP2;ratioP2;P2;SDS_P1;SDS_P2;PMS_P1;PMS_P2;Temp;Humidity;BMP_temperature;BMP_pressure;BME280_temperature;BME280_humidity;BME280_pressure;Samples;Min_cycle;Max_cycle;Signal;HPM_P1;HPM_P2
2022/11/15 00:00:55;;;;;;;45.90;19.85;;;;;;;;;;4976043;28;20027;-78
2022/11/15 00:03:22;;;;;;;52.42;21.45;;;;;;;;;;4974185;28;20019;-79
2022/11/15 00:05:49;;;;;;;59.42;22.20;;;;;;;;;;4974152;28;20094;-78
2022/11/15 00:08:15;;;;;;;54.10;21.83;;;;;;;;;;4974155;28;20027;-79
2022/11/15 00:10:41;;;;;;;61.95;22.83;;;;;;;;;;4973851;28;20027;-78
2022/11/15 00:13:08;;;;;;;68.97;23.50;;;;;;;;;;4972750;28;20110;-78
2022/11/15 00:15:35;;;;;;;61.28;23.85;;;;;;;;;;4972670;28;20093;-79
2022/11/15 00:18:02;;;;;;;68.90;24.50;;;;;;;;;;4956862;28;20041;-79
2022/11/15 00:20:28;;;;;;;60.85;23.67;;;;;;;;;;4972547;28;20011;-79
2022/11/15 00:22:54;;;;;;;82.53;25.20;;;;;;;;;;4973669;28;20485;-78
2022/11/15 00:25:20;;;;;;;62.35;23.98;;;;;;;;;;4972789;28;20031;-78
2022/11/15 00:27:46;;;;;;;68.63;25.13;;;;;;;;;;4972636;28;20433;-78
2022/11/15 00:30:12;;;;;;;77.63;26.15;;;;;;;;;;4973378;28;20030;-79
2022/11/15 00:32:38;;;;;;;77.10;26.33;;;;;;;;;;4971742;28;20062;-79
2022/11/15 00:35:05;;;;;;;78.47;25.55;;;;;;;;;;4973268;28;20042;-78
2022/11/15 00:37:31;;;;;;;71.53;25.35;;;;;;;;;;4992068;28;20037;-79
2022/11/15 00:39:57;;;;;;;80.55;25.85;;;;;;;;;;4991714;28;20038;-78
2022/11/15 00:42:23;;;;;;;71.05;24.75;;;;;;;;;;4989198;28;20030;-78
2022/11/15 00:44:49;;;;;;;94.68;27.42;;;;;;;;;;4976516;28;20065;-79
2022/11/15 00:47:15;;;;;;;66.85;25.05;;;;;;;;;;4983686;28;20027;-79
2022/11/15 00:49:41;;;;;;;93.82;27.45;;;;;;;;;;4973550;28;20027;-79
2022/11/15 00:52:07;;;;;;;85.22;26.05;;;;;;;;;;4973402;28;20037;-79
2022/11/15 00:54:33;;;;;;;92.38;26.75;;;;;;;;;;4971618;28;20035;-78
2022/11/15 00:56:59;;;;;;;74.78;25.08;;;;;;;;;;4971794;28;20367;-78
2022/11/15 00:59:25;;;;;;;80.07;25.23;;;;;;;;;;4964826;28;20848;-79
2022/11/15 01:01:51;;;;;;;96.03;27.08;;;;;;;;;;4991566;28;20433;-79
2022/11/15 01:04:17;;;;;;;75.05;25.40;;;;;;;;;;4991264;28;20477;-79
2022/11/15 01:06:43;;;;;;;80.20;27.23;;;;;;;;;;4991280;28;20037;-79
2022/11/15 01:09:09;;;;;;;80.88;26.95;;;;;;;;;;4992713;28;20161;-79
2022/11/15 01:11:36;;;;;;;88.53;27.77;;;;;;;;;;4992739;28;20070;-79
2022/11/15 01:14:02;;;;;;;81.63;27.60;;;;;;;;;;4992237;28;20030;-79
2022/11/15 01:16:28;;;;;;;85.63;27.50;;;;;;;;;;4990846;28;20034;-79
2022/11/15 01:18:54;;;;;;;78.13;26.58;;;;;;;;;;4990770;28;20457;-79
2022/11/15 01:21:20;;;;;;;70.30;25.75;;;;;;;;;;4990697;28;20097;-79
2022/11/15 01:23:46;;;;;;;73.43;25.60;;;;;;;;;;4994567;28;20030;-78
2022/11/15 01:26:13;;;;;;;81.75;27.05;;;;;;;;;;4995562;28;20030;-79
2022/11/15 01:28:40;;;;;;;78.50;26.50;;;;;;;;;;4994139;28;20100;-79
2022/11/15 01:31:14;;;;;;;90.75;26.52;;;;;;;;;;4981988;28;20046;-79
2022/11/15 01:33:40;;;;;;;80.47;26.92;;;;;;;;;;4976458;28;20421;-79
2022/11/15 01:36:17;;;;;;;83.15;26.33;;;;;;;;;;4975249;28;20043;-79
2022/11/15 01:38:43;;;;;;;72.82;26.90;;;;;;;;;;4976496;28;20093;-79
2022/11/15 01:41:17;;;;;;;81.40;27.08;;;;;;;;;;4985712;28;20420;-79
2022/11/15 01:43:43;;;;;;;65.78;24.85;;;;;;;;;;4995794;28;20053;-79
2022/11/15 01:46:13;;;;;;;67.47;23.98;;;;;;;;;;5008696;28;20515;-78
2022/11/15 01:48:39;;;;;;;67.05;24.35;;;;;;;;;;5014173;28;20400;-79
2022/11/15 01:51:09;;;;;;;76.10;26.67;;;;;;;;;;4998040;28;20494;-79
2022/11/15 01:53:36;;;;;;;76.68;25.08;;;;;;;;;;5015324;28;20058;-79
2022/11/15 01:56:04;;;;;;;60.30;23.23;;;;;;;;;;5015435;28;20060;-79
2022/11/15 01:58:30;;;;;;;69.57;26.38;;;;;;;;;;5014088;28;20468;-79
2022/11/15 02:00:56;;;;;;;70.22;25.85;;;;;;;;;;5014061;28;20018;-79
2022/11/15 02:03:24;;;;;;;58.40;24.70;;;;;;;;;;5015192;28;20025;-78
2022/11/15 02:05:50;;;;;;;74.28;26.70;;;;;;;;;;5013991;28;20174;-79
2022/11/15 02:08:19;;;;;;;70.88;27.17;;;;;;;;;;5015137;28;20113;-79
2022/11/15 02:10:46;;;;;;;57.85;25.05;;;;;;;;;;5014971;28;20056;-78
2022/11/15 02:13:14;;;;;;;73.53;25.48;;;;;;;;;;5014957;28;20088;-79
2022/11/15 02:15:44;;;;;;;75.03;27.05;;;;;;;;;;5013439;28;20122;-79
2022/11/15 02:18:24;;;;;;;58.10;24.73;;;;;;;;;;5014933;28;20022;-79
2022/11/15 02:20:53;;;;;;;66.43;27.10;;;;;;;;;;5013600;28;20026;-79
2022/11/15 02:23:28;;;;;;;66.28;25.92;;;;;;;;;;5013536;28;20018;-79
2022/11/15 02:26:03;;;;;;;59.25;24.38;;;;;;;;;;5014771;28;20476;-78
2022/11/15 02:28:29;;;;;;;60.58;23.75;;;;;;;;;;5013609;28;20053;-79
2022/11/15 02:30:58;;;;;;;60.90;25.48;;;;;;;;;;5014530;28;20037;-79
2022/11/15 02:33:34;;;;;;;68.25;26.70;;;;;;;;;;5014492;28;20049;-79
2022/11/15 02:36:02;;;;;;;65.40;26.08;;;;;;;;;;5012917;28;20061;-79
2022/11/15 02:38:46;;;;;;;62.33;25.90;;;;;;;;;;5014525;28;20507;-80
2022/11/15 02:41:15;;;;;;;58.83;25.13;;;;;;;;;;5012319;28;20029;-79
2022/11/15 02:43:58;;;;;;;62.80;25.73;;;;;;;;;;4998151;28;20022;-79
2022/11/15 02:49:22;;;;;;;57.72;24.65;;;;;;;;;;4975468;28;20248;-79
2022/11/15 02:51:49;;;;;;;50.88;25.00;;;;;;;;;;4974069;28;20161;-79
2022/11/15 02:54:21;;;;;;;53.97;23.98;;;;;;;;;;4973923;28;20495;-79
2022/11/15 02:56:47;;;;;;;53.30;24.33;;;;;;;;;;4973740;28;20090;-79
2022/11/15 02:59:16;;;;;;;57.42;24.08;;;;;;;;;;4973755;28;20507;-79
2022/11/15 03:02:07;;;;;;;69.35;25.23;;;;;;;;;;4974891;28;20098;-79
2022/11/15 03:04:52;;;;;;;62.42;25.58;;;;;;;;;;4975000;28;20039;-79
2022/11/15 03:07:35;;;;;;;60.45;26.58;;;;;;;;;;4975067;28;20393;-79
2022/11/15 03:10:04;;;;;;;62.08;25.55;;;;;;;;;;4973581;28;20074;-79
2022/11/15 03:12:36;;;;;;;54.05;24.00;;;;;;;;;;4975100;28;20059;-79
2022/11/15 03:15:41;;;;;;;46.03;23.55;;;;;;;;;;4973449;28;20466;-79
2022/11/15 03:18:18;;;;;;;59.70;24.08;;;;;;;;;;4934235;29;20059;-79
2022/11/15 03:20:45;;;;;;;55.33;23.83;;;;;;;;;;4934211;29;20122;-79
2022/11/15 03:23:11;;;;;;;50.83;24.50;;;;;;;;;;4956051;28;20034;-79
2022/11/15 03:25:41;;;;;;;58.17;24.95;;;;;;;;;;4973400;28;20556;-79
2022/11/15 03:28:09;;;;;;;50.85;23.58;;;;;;;;;;4974612;28;20041;-79
2022/11/15 03:30:36;;;;;;;47.33;23.55;;;;;;;;;;4984113;28;20026;-79
2022/11/15 03:33:04;;;;;;;52.33;24.15;;;;;;;;;;4994138;28;20022;-79
2022/11/15 03:35:39;;;;;;;57.85;25.67;;;;;;;;;;4993855;28;20030;-79
2022/11/15 03:38:21;;;;;;;53.90;23.83;;;;;;;;;;4994018;28;20484;-79
2022/11/15 03:40:55;;;;;;;50.47;24.57;;;;;;;;;;4991343;28;20089;-79
2022/11/15 03:43:40;;;;;;;58.08;25.77;;;;;;;;;;4992612;28;20053;-79
2022/11/15 03:46:13;;;;;;;48.22;24.13;;;;;;;;;;5013034;28;20082;-79
2022/11/15 03:48:46;;;;;;;59.30;25.30;;;;;;;;;;5015415;28;20033;-79
2022/11/15 03:51:12;;;;;;;51.85;25.42;;;;;;;;;;5015223;28;20378;-79
2022/11/15 03:53:38;;;;;;;51.47;23.52;;;;;;;;;;5033158;28;20076;-79
2022/11/15 03:56:04;;;;;;;53.08;25.10;;;;;;;;;;5033072;28;20076;-79
2022/11/15 03:58:30;;;;;;;56.55;25.42;;;;;;;;;;4995652;28;20026;-79
2022/11/15 04:00:56;;;;;;;60.35;26.02;;;;;;;;;;5012995;28;20033;-79
2022/11/15 04:03:22;;;;;;;59.85;26.13;;;;;;;;;;4995656;28;20018;-79
2022/11/15 04:05:48;;;;;;;49.53;24.40;;;;;;;;;;5013149;28;20038;-79
2022/11/15 04:08:14;;;;;;;60.58;25.00;;;;;;;;;;4979808;28;20069;-79
2022/11/15 04:10:40;;;;;;;52.45;24.35;;;;;;;;;;5012992;28;20033;-79
2022/11/15 04:13:06;;;;;;;53.10;24.60;;;;;;;;;;4979467;28;20040;-79
2022/11/15 04:15:33;;;;;;;50.28;24.33;;;;;;;;;;5013052;28;20357;-79
2022/11/15 04:17:59;;;;;;;60.67;25.58;;;;;;;;;;5013188;28;20022;-79
2022/11/15 04:25:59;;;;;;;54.53;25.95;;;;;;;;;;5013238;28;20036;-79
2022/11/15 04:28:26;;;;;;;60.33;24.95;;;;;;;;;;4995016;28;20572;-79
2022/11/15 04:30:52;;;;;;;57.55;25.83;;;;;;;;;;5024920;28;20057;-79
2022/11/15 04:33:18;;;;;;;62.70;27.08;;;;;;;;;;5032716;28;20105;-79
2022/11/15 04:37:11;;;;;;;64.55;25.85;;;;;;;;;;5032496;28;20041;-79
2022/11/15 04:38:30;;;;;;;61.92;25.75;;;;;;;;;;5032311;28;20136;-79
2022/11/15 04:40:56;;;;;;;55.10;25.52;;;;;;;;;;5032027;28;20056;-79
2022/11/15 04:43:22;;;;;;;58.45;26.40;;;;;;;;;;5014979;28;20383;-79
2022/11/15 04:45:48;;;;;;;53.95;24.42;;;;;;;;;;5014809;28;20115;-79
2022/11/15 04:48:14;;;;;;;56.28;25.77;;;;;;;;;;5032515;28;20040;-79
2022/11/15 04:50:40;;;;;;;54.90;24.35;;;;;;;;;;5014693;28;20143;-79
2022/11/15 04:53:06;;;;;;;54.45;25.17;;;;;;;;;;5032391;28;20029;-79
2022/11/15 04:55:32;;;;;;;54.75;25.45;;;;;;;;;;5014776;28;20077;-79
2022/11/15 04:58:02;;;;;;;63.05;25.38;;;;;;;;;;5034112;28;20033;-79
2022/11/15 05:00:29;;;;;;;61.15;27.05;;;;;;;;;;5036286;28;20026;-79
2022/11/15 05:05:40;;;;;;;55.05;24.88;;;;;;;;;;5021518;28;20043;-79
2022/11/15 05:08:06;;;;;;;62.92;27.27;;;;;;;;;;5018509;28;20034;-79
2022/11/15 05:10:32;;;;;;;55.65;25.52;;;;;;;;;;5002144;28;20129;-79
2022/11/15 05:12:58;;;;;;;58.72;26.40;;;;;;;;;;5018227;28;20053;-79
2022/11/15 05:15:24;;;;;;;57.25;26.13;;;;;;;;;;5018297;28;20032;-79
2022/11/15 05:17:50;;;;;;;51.65;25.23;;;;;;;;;;5018267;28;20025;-79
2022/11/15 05:20:16;;;;;;;56.25;25.05;;;;;;;;;;5035993;28;20033;-79
2022/11/15 05:22:42;;;;;;;44.97;23.13;;;;;;;;;;5035839;28;20468;-79
2022/11/15 05:25:08;;;;;;;58.05;25.92;;;;;;;;;;5017979;28;20045;-79
2022/11/15 05:27:35;;;;;;;52.75;25.85;;;;;;;;;;5018222;28;20495;-79
2022/11/15 05:30:01;;;;;;;58.88;26.58;;;;;;;;;;5035830;28;20030;-79
2022/11/15 05:32:28;;;;;;;51.58;23.85;;;;;;;;;;5035596;28;20026;-79
2022/11/15 05:34:55;;;;;;;55.47;25.33;;;;;;;;;;5035484;28;20072;-79
2022/11/15 05:37:21;;;;;;;49.22;23.38;;;;;;;;;;5017836;28;20365;-79
2022/11/15 05:39:47;;;;;;;58.92;25.02;;;;;;;;;;5035440;28;20029;-79
2022/11/15 05:42:14;;;;;;;59.33;25.13;;;;;;;;;;5021527;28;20053;-79
2022/11/15 05:44:42;;;;;;;55.20;24.95;;;;;;;;;;5015822;28;20105;-79
2022/11/15 05:47:09;;;;;;;52.42;24.25;;;;;;;;;;5015399;28;20125;-79
2022/11/15 05:49:37;;;;;;;53.67;24.70;;;;;;;;;;5021137;28;20063;-79
2022/11/15 05:52:05;;;;;;;53.40;25.05;;;;;;;;;;5025623;28;20053;-79
2022/11/15 05:54:33;;;;;;;47.78;23.55;;;;;;;;;;4997882;28;20034;-79
2022/11/15 05:56:59;;;;;;;53.03;25.05;;;;;;;;;;5021372;28;20472;-79
2022/11/15 05:59:26;;;;;;;52.83;25.52;;;;;;;;;;4999413;28;20033;-79
2022/11/15 06:01:52;;;;;;;60.30;26.05;;;;;;;;;;5015361;28;20187;-79
2022/11/15 06:04:18;;;;;;;57.67;25.27;;;;;;;;;;5015199;28;20049;-79
2022/11/15 06:06:44;;;;;;;60.97;25.70;;;;;;;;;;5032830;28;20017;-79
2022/11/15 06:09:10;;;;;;;52.20;24.50;;;;;;;;;;4987794;28;20022;-79
2022/11/15 06:11:36;;;;;;;56.10;25.92;;;;;;;;;;4981898;28;20037;-79
2022/11/15 06:14:02;;;;;;;52.80;24.88;;;;;;;;;;5014448;28;20030;-79
2022/11/15 06:16:28;;;;;;;54.70;25.35;;;;;;;;;;5017272;28;20116;-79
2022/11/15 06:18:54;;;;;;;52.53;24.55;;;;;;;;;;5034732;28;20034;-79
2022/11/15 06:21:20;;;;;;;56.28;24.67;;;;;;;;;;5034738;28;20476;-79
2022/11/15 06:23:46;;;;;;;54.60;25.83;;;;;;;;;;5034900;28;20087;-79
2022/11/15 06:26:12;;;;;;;51.22;25.88;;;;;;;;;;5034694;28;20079;-79
2022/11/15 06:28:38;;;;;;;55.58;25.58;;;;;;;;;;5016723;28;20033;-79
2022/11/15 06:31:04;;;;;;;64.10;27.63;;;;;;;;;;5013432;28;20026;-79
2022/11/15 06:33:30;;;;;;;44.55;23.70;;;;;;;;;;5013386;28;20457;-79
2022/11/15 06:36:00;;;;;;;50.72;24.77;;;;;;;;;;5026079;28;20033;-79
2022/11/15 06:38:27;;;;;;;68.05;24.90;;;;;;;;;;5034462;28;20022;-79
2022/11/15 06:40:53;;;;;;;56.17;26.05;;;;;;;;;;5025878;28;20030;-79
2022/11/15 06:43:19;;;;;;;51.83;24.75;;;;;;;;;;5014560;28;20098;-79
2022/11/15 06:45:45;;;;;;;47.63;23.77;;;;;;;;;;4997112;28;20054;-79
2022/11/15 06:48:11;;;;;;;47.10;23.08;;;;;;;;;;5014441;28;20032;-79
2022/11/15 06:50:37;;;;;;;52.42;24.25;;;;;;;;;;5014495;28;20164;-79
2022/11/15 06:53:06;;;;;;;54.35;24.73;;;;;;;;;;5014432;28;20033;-79
2022/11/15 06:55:32;;;;;;;58.55;25.77;;;;;;;;;;4996696;28;20115;-79
2022/11/15 06:57:58;;;;;;;41.45;21.90;;;;;;;;;;4996886;28;20037;-79
2022/11/15 07:00:24;;;;;;;57.35;23.77;;;;;;;;;;5013417;28;20030;-79
2022/11/15 07:02:50;;;;;;;55.08;25.77;;;;;;;;;;4996530;28;20033;-79
2022/11/15 07:05:16;;;;;;;48.47;23.42;;;;;;;;;;4996918;28;20030;-79
2022/11/15 07:07:42;;;;;;;45.03;25.15;;;;;;;;;;4996748;28;20025;-79
2022/11/15 07:10:08;;;;;;;47.13;22.55;;;;;;;;;;4996596;28;20026;-79
2022/11/15 07:12:34;;;;;;;45.35;23.10;;;;;;;;;;5014201;28;20121;-79
2022/11/15 07:15:01;;;;;;;56.97;24.38;;;;;;;;;;4996719;28;20034;-79
2022/11/15 07:17:27;;;;;;;46.85;23.25;;;;;;;;;;4996457;28;20033;-79
2022/11/15 07:19:53;;;;;;;47.90;24.13;;;;;;;;;;4995866;28;20037;-79
2022/11/15 07:22:19;;;;;;;51.67;24.70;;;;;;;;;;4996253;28;20455;-79
2022/11/15 07:24:45;;;;;;;50.80;22.80;;;;;;;;;;4996436;28;20080;-79
2022/11/15 07:27:11;;;;;;;48.90;24.38;;;;;;;;;;5013945;28;20041;-79
2022/11/15 07:29:37;;;;;;;43.70;23.58;;;;;;;;;;4997697;28;20040;-79
2022/11/15 07:32:03;;;;;;;54.45;23.40;;;;;;;;;;5033690;28;20036;-79
2022/11/15 07:34:29;;;;;;;53.70;23.83;;;;;;;;;;5033319;28;20487;-79
2022/11/15 07:36:55;;;;;;;52.17;23.58;;;;;;;;;;5033270;28;20487;-79
2022/11/15 07:39:21;;;;;;;46.55;21.58;;;;;;;;;;5015816;28;20033;-79
2022/11/15 07:41:49;;;;;;;45.70;22.98;;;;;;;;;;5031980;28;20459;-79
2022/11/15 07:44:15;;;;;;;42.88;23.13;;;;;;;;;;5007605;28;20029;-79
2022/11/15 07:46:41;;;;;;;44.45;23.83;;;;;;;;;;5038182;28;20052;-79
2022/11/15 07:49:07;;;;;;;46.83;23.98;;;;;;;;;;5015582;28;20033;-79
2022/11/15 07:51:33;;;;;;;50.08;23.42;;;;;;;;;;4999197;28;20483;-79
2022/11/15 07:53:59;;;;;;;50.53;22.58;;;;;;;;;;5016110;28;20088;-79
2022/11/15 07:56:25;;;;;;;45.47;22.13;;;;;;;;;;4980929;28;20030;-79
2022/11/15 07:58:51;;;;;;;51.85;23.42;;;;;;;;;;5015327;28;20021;-79
2022/11/15 08:01:17;;;;;;;43.60;22.50;;;;;;;;;;5015130;28;20033;-79
2022/11/15 08:03:43;;;;;;;47.90;23.58;;;;;;;;;;5032831;28;20472;-79
2022/11/15 08:06:09;;;;;;;38.80;21.15;;;;;;;;;;5015177;28;20472;-79
2022/11/15 08:08:35;;;;;;;44.20;21.25;;;;;;;;;;5015231;28;20041;-79
2022/11/15 08:11:01;;;;;;;46.53;22.63;;;;;;;;;;5023371;28;20042;-79
2022/11/15 08:13:27;;;;;;;47.90;22.70;;;;;;;;;;5022679;28;20033;-79
2022/11/15 08:15:58;;;;;;;43.65;21.10;;;;;;;;;;5012160;28;20033;-79
2022/11/15 08:18:24;;;;;;;51.22;21.05;;;;;;;;;;5013834;28;20033;-79
2022/11/15 08:20:50;;;;;;;40.72;20.42;;;;;;;;;;5014901;28;20025;-79
2022/11/15 08:23:16;;;;;;;38.22;20.30;;;;;;;;;;5015036;28;20030;-79
2022/11/15 08:25:43;;;;;;;42.15;19.67;;;;;;;;;;5015395;28;20036;-79
2022/11/15 08:28:10;;;;;;;36.40;19.80;;;;;;;;;;5015267;28;20030;-79
2022/11/15 08:30:42;;;;;;;39.35;19.27;;;;;;;;;;5002772;28;20101;-79
2022/11/15 08:33:10;;;;;;;34.30;19.40;;;;;;;;;;5031364;28;20036;-79
2022/11/15 08:35:36;;;;;;;38.50;19.45;;;;;;;;;;5036580;28;20034;-79
2022/11/15 08:38:02;;;;;;;33.53;17.60;;;;;;;;;;5028698;28;20026;-79
2022/11/15 08:40:28;;;;;;;34.70;18.98;;;;;;;;;;5023078;28;20017;-79
2022/11/15 08:42:54;;;;;;;36.20;18.50;;;;;;;;;;5015653;28;20411;-80
2022/11/15 08:45:21;;;;;;;35.95;17.52;;;;;;;;;;5034195;28;20180;-77
2022/11/15 08:47:47;;;;;;;34.38;16.80;;;;;;;;;;5036186;28;20109;-77
2022/11/15 08:50:13;;;;;;;33.88;17.50;;;;;;;;;;5018828;28;20427;-78
2022/11/15 08:52:39;;;;;;;33.65;17.00;;;;;;;;;;5018483;28;20535;-78
2022/11/15 08:55:05;;;;;;;33.35;16.48;;;;;;;;;;5018342;28;20030;-77
2022/11/15 08:57:31;;;;;;;30.83;16.20;;;;;;;;;;5036400;28;20472;-78
2022/11/15 08:59:57;;;;;;;33.97;16.08;;;;;;;;;;5029527;28;20031;-77
2022/11/15 09:02:23;;;;;;;28.63;16.30;;;;;;;;;;5032924;28;20132;-77
2022/11/15 09:04:50;;;;;;;26.95;15.82;;;;;;;;;;5024593;28;20045;-77
2022/11/15 09:07:16;;;;;;;31.33;16.27;;;;;;;;;;5027039;28;20104;-77
2022/11/15 09:09:42;;;;;;;30.08;16.67;;;;;;;;;;5026998;28;20036;-77
2022/11/15 09:12:08;;;;;;;30.83;16.48;;;;;;;;;;5018393;28;20091;-79
2022/11/15 09:14:34;;;;;;;26.40;15.18;;;;;;;;;;5023210;28;20042;-79
2022/11/15 09:17:01;;;;;;;27.92;16.15;;;;;;;;;;5016268;28;20073;-78
2022/11/15 09:19:27;;;;;;;31.17;16.63;;;;;;;;;;5028617;28;20762;-79
2022/11/15 09:21:53;;;;;;;27.05;14.88;;;;;;;;;;5018293;28;20403;-79
2022/11/15 09:24:19;;;;;;;35.00;16.20;;;;;;;;;;5018443;28;20087;-79
2022/11/15 09:26:45;;;;;;;32.47;14.85;;;;;;;;;;5001973;28;20018;-79
2022/11/15 09:29:11;;;;;;;29.08;15.80;;;;;;;;;;5004013;28;20018;-79
2022/11/15 09:31:37;;;;;;;31.17;14.25;;;;;;;;;;5035818;28;20067;-79
2022/11/15 09:34:03;;;;;;;27.48;13.80;;;;;;;;;;5018356;28;20026;-79
2022/11/15 09:36:29;;;;;;;20.33;13.02;;;;;;;;;;5014661;28;20022;-79
2022/11/15 09:38:57;;;;;;;28.52;14.65;;;;;;;;;;5016019;28;20026;-78
2022/11/15 09:41:31;;;;;;;26.95;13.77;;;;;;;;;;5030340;28;20375;-78
2022/11/15 09:44:09;;;;;;;27.58;13.80;;;;;;;;;;5026037;28;20022;-78
2022/11/15 09:46:55;;;;;;;26.73;13.30;;;;;;;;;;5015542;28;20053;-79
2022/11/15 09:49:21;;;;;;;21.25;12.18;;;;;;;;;;5015931;28;20026;-79
2022/11/15 09:51:49;;;;;;;21.80;12.07;;;;;;;;;;5015892;28;20194;-78
2022/11/15 09:54:21;;;;;;;21.05;11.48;;;;;;;;;;4998188;28;20030;-78
2022/11/15 09:56:48;;;;;;;18.83;10.50;;;;;;;;;;5015687;28;20022;-79
2022/11/15 09:59:21;;;;;;;16.45;9.65;;;;;;;;;;5020897;28;20036;-79
2022/11/15 10:01:54;;;;;;;16.73;9.25;;;;;;;;;;5020061;28;20076;-79
2022/11/15 10:04:21;;;;;;;16.83;8.32;;;;;;;;;;5015547;28;20473;-79
2022/11/15 10:07:03;;;;;;;16.20;8.27;;;;;;;;;;5015390;28;20034;-79
2022/11/15 10:09:49;;;;;;;14.65;7.65;;;;;;;;;;4997744;28;20026;-79
2022/11/15 10:12:16;;;;;;;13.85;7.82;;;;;;;;;;5014545;28;20030;-79
2022/11/15 10:14:42;;;;;;;16.80;7.50;;;;;;;;;;5015181;28;20062;-79
2022/11/15 10:17:20;;;;;;;10.98;6.18;;;;;;;;;;5019427;28;20013;-79
2022/11/15 10:19:51;;;;;;;10.52;5.95;;;;;;;;;;5015019;28;20173;-77
2022/11/15 10:22:29;;;;;;;14.35;5.80;;;;;;;;;;5014867;28;20485;-77
2022/11/15 10:25:18;;;;;;;9.82;5.28;;;;;;;;;;5014915;28;20108;-77
2022/11/15 10:27:48;;;;;;;9.32;5.00;;;;;;;;;;4987232;28;20037;-77
2022/11/15 10:30:15;;;;;;;9.80;5.10;;;;;;;;;;5014886;28;20056;-80
2022/11/15 10:32:43;;;;;;;9.38;4.95;;;;;;;;;;5014832;28;20448;-80
2022/11/15 10:35:26;;;;;;;9.50;5.07;;;;;;;;;;5014588;28;20026;-80
2022/11/15 10:38:04;;;;;;;8.75;5.18;;;;;;;;;;5014989;28;20040;-80
2022/11/15 10:40:30;;;;;;;6.55;4.28;;;;;;;;;;5016896;28;20029;-78
2022/11/15 10:43:05;;;;;;;7.25;4.30;;;;;;;;;;5020788;28;20030;-78
2022/11/15 10:45:32;;;;;;;6.03;3.63;;;;;;;;;;5025649;28;20033;-78
2022/11/15 10:48:14;;;;;;;5.35;3.67;;;;;;;;;;5017202;28;20037;-79
2022/11/15 10:50:41;;;;;;;4.60;3.35;;;;;;;;;;5023651;28;20424;-79
2022/11/15 10:53:22;;;;;;;5.35;3.30;;;;;;;;;;5027057;28;20041;-79
2022/11/15 10:55:50;;;;;;;7.10;3.30;;;;;;;;;;5019468;28;20029;-79
2022/11/15 10:58:30;;;;;;;6.88;3.80;;;;;;;;;;5034278;28;20387;-79
2022/11/15 11:01:08;;;;;;;10.40;4.38;;;;;;;;;;5034138;28;20028;-79
2022/11/15 11:03:37;;;;;;;6.63;3.42;;;;;;;;;;5034241;28;20021;-79
2022/11/15 11:06:14;;;;;;;6.32;3.60;;;;;;;;;;5033968;28;20132;-80
2022/11/15 11:08:40;;;;;;;8.68;4.97;;;;;;;;;;5034080;28;20030;-79
2022/11/15 11:11:08;;;;;;;5.03;3.42;;;;;;;;;;5033997;28;20029;-80
2022/11/15 11:13:38;;;;;;;6.15;2.92;;;;;;;;;;5024615;28;20324;-80
2022/11/15 11:16:07;;;;;;;8.93;3.10;;;;;;;;;;5016541;28;20037;-79
2022/11/15 11:18:48;;;;;;;7.43;3.20;;;;;;;;;;5018434;28;20025;-80
2022/11/15 11:21:15;;;;;;;7.00;3.05;;;;;;;;;;5032623;28;20025;-80
2022/11/15 11:23:44;;;;;;;5.15;2.58;;;;;;;;;;5031235;28;20036;-80
2022/11/15 11:26:16;;;;;;;4.35;2.50;;;;;;;;;;5026330;28;20040;-80
2022/11/15 11:29:00;;;;;;;7.20;2.40;;;;;;;;;;5020802;28;20029;-80
2022/11/15 11:31:33;;;;;;;7.47;2.28;;;;;;;;;;5029884;28;20036;-80
2022/11/15 11:34:02;;;;;;;6.05;2.00;;;;;;;;;;5004768;28;20098;-80
2022/11/15 11:36:35;;;;;;;13.82;2.58;;;;;;;;;;5013787;28;20058;-79
2022/11/15 11:39:17;;;;;;;7.25;2.28;;;;;;;;;;5013672;28;20096;-80
2022/11/15 11:42:02;;;;;;;5.25;2.25;;;;;;;;;;5030640;28;20067;-79
2022/11/15 11:44:28;;;;;;;8.38;2.00;;;;;;;;;;5033142;28;20013;-80
2022/11/15 11:46:57;;;;;;;4.00;1.80;;;;;;;;;;5003837;28;20085;-79
2022/11/15 11:49:37;;;;;;;6.22;1.95;;;;;;;;;;4978010;28;20418;-80
2022/11/15 11:52:03;;;;;;;7.32;2.00;;;;;;;;;;4982752;28;20053;-79
2022/11/15 11:54:37;;;;;;;3.85;1.83;;;;;;;;;;4988573;28;20026;-80
2022/11/15 11:57:06;;;;;;;5.40;1.73;;;;;;;;;;4993724;28;20018;-79
2022/11/15 11:59:32;;;;;;;6.78;1.67;;;;;;;;;;4986041;28;20033;-80
2022/11/15 12:02:02;;;;;;;3.70;1.65;;;;;;;;;;4974307;28;20023;-80
2022/11/15 12:04:31;;;;;;;3.92;1.85;;;;;;;;;;4983708;28;20097;-80
2022/11/15 12:07:00;;;;;;;3.17;1.48;;;;;;;;;;4981854;28;20051;-80
2022/11/15 12:09:29;;;;;;;5.25;1.50;;;;;;;;;;4984120;28;20454;-79
2022/11/15 12:11:59;;;;;;;5.65;1.58;;;;;;;;;;4973910;28;20030;-80
2022/11/15 12:14:30;;;;;;;3.97;1.38;;;;;;;;;;4973976;28;20031;-78
2022/11/15 12:16:57;;;;;;;6.28;1.50;;;;;;;;;;4980376;28;20049;-79
2022/11/15 12:19:23;;;;;;;7.43;1.58;;;;;;;;;;4981041;28;20031;-79
2022/11/15 12:22:02;;;;;;;3.75;1.40;;;;;;;;;;4992339;28;20113;-79
2022/11/15 12:24:33;;;;;;;6.97;1.45;;;;;;;;;;4993859;28;20030;-80
2022/11/15 12:27:06;;;;;;;11.15;1.80;;;;;;;;;;4974270;28;20026;-80
2022/11/15 12:29:40;;;;;;;4.18;1.42;;;;;;;;;;4977752;28;20381;-80
2022/11/15 12:32:13;;;;;;;5.60;1.50;;;;;;;;;;4993420;28;20025;-80
2022/11/15 12:34:46;;;;;;;5.30;1.33;;;;;;;;;;4977885;28;20018;-80
2022/11/15 12:37:31;;;;;;;3.83;1.30;;;;;;;;;;4973729;28;20537;-80
2022/11/15 12:40:18;;;;;;;4.30;1.35;;;;;;;;;;4985636;28;20029;-79
2022/11/15 12:42:44;;;;;;;4.35;1.08;;;;;;;;;;4993271;28;20042;-79
2022/11/15 12:45:27;;;;;;;2.85;1.25;;;;;;;;;;4975961;28;20031;-79
2022/11/15 12:47:53;;;;;;;6.88;1.27;;;;;;;;;;4972922;28;20072;-78
2022/11/15 12:50:43;;;;;;;7.22;1.20;;;;;;;;;;4973832;28;20491;-79
2022/11/15 12:53:32;;;;;;;3.88;1.27;;;;;;;;;;4967197;28;20042;-79
2022/11/15 12:56:16;;;;;;;3.53;1.33;;;;;;;;;;4968283;28;20047;-79
2022/11/15 12:58:45;;;;;;;5.40;1.30;;;;;;;;;;4980241;28;20108;-79
2022/11/15 13:01:37;;;;;;;11.98;1.58;;;;;;;;;;4993076;28;20486;-79
2022/11/15 13:04:15;;;;;;;3.70;1.20;;;;;;;;;;4982856;28;20051;-77
2022/11/15 13:06:45;;;;;;;8.27;2.00;;;;;;;;;;4980626;28;20046;-77
2022/11/15 13:09:29;;;;;;;5.85;1.58;;;;;;;;;;4977317;28;20034;-77
2022/11/15 13:11:56;;;;;;;3.80;1.55;;;;;;;;;;4982664;28;20026;-77
2022/11/15 13:14:37;;;;;;;6.88;1.52;;;;;;;;;;4972606;28;20031;-76
2022/11/15 13:17:11;;;;;;;12.45;1.83;;;;;;;;;;4972757;28;20031;-81
2022/11/15 13:19:37;;;;;;;5.75;1.20;;;;;;;;;;4976112;28;20046;-79
2022/11/15 13:24:50;;;;;;;2.50;1.00;;;;;;;;;;4977381;28;20385;-79
2022/11/15 13:27:18;;;;;;;5.85;0.90;;;;;;;;;;4975746;28;20106;-80
2022/11/15 13:29:44;;;;;;;4.38;1.17;;;;;;;;;;4983275;28;20057;-80
2022/11/15 13:32:15;;;;;;;6.35;1.00;;;;;;;;;;4996065;28;20039;-80
2022/11/15 13:34:49;;;;;;;2.22;0.88;;;;;;;;;;4995985;28;20512;-80
2022/11/15 13:37:21;;;;;;;3.47;1.00;;;;;;;;;;4996369;28;20030;-80
2022/11/15 13:39:48;;;;;;;6.40;1.35;;;;;;;;;;4995261;28;20488;-79
2022/11/15 13:42:19;;;;;;;5.63;1.00;;;;;;;;;;4994650;28;20347;-79
2022/11/15 13:44:59;;;;;;;7.03;1.35;;;;;;;;;;4995754;28;20054;-80
2022/11/15 13:47:29;;;;;;;4.57;1.45;;;;;;;;;;5020492;28;20569;-79
2022/11/15 13:50:00;;;;;;;2.35;1.05;;;;;;;;;;5035300;28;20036;-80
2022/11/15 13:52:33;;;;;;;6.80;1.02;;;;;;;;;;5035444;28;20115;-80
2022/11/15 13:55:07;;;;;;;9.30;1.25;;;;;;;;;;5035744;28;20029;-80
2022/11/15 13:57:48;;;;;;;6.78;1.08;;;;;;;;;;5035447;28;20105;-80
2022/11/15 14:00:29;;;;;;;5.35;1.23;;;;;;;;;;5035095;28;20031;-79
2022/11/15 14:02:56;;;;;;;5.85;1.13;;;;;;;;;;5035077;28;20503;-79
2022/11/15 14:05:24;;;;;;;5.00;0.80;;;;;;;;;;5034843;28;20025;-79
2022/11/15 14:07:59;;;;;;;2.30;1.02;;;;;;;;;;5017232;28;20091;-80
2022/11/15 14:10:28;;;;;;;4.70;1.25;;;;;;;;;;5035002;28;20033;-79
2022/11/15 14:12:54;;;;;;;6.85;1.23;;;;;;;;;;5035051;28;20075;-80
2022/11/15 14:15:31;;;;;;;6.18;1.70;;;;;;;;;;5017160;28;20021;-79
2022/11/15 14:17:57;;;;;;;5.28;1.38;;;;;;;;;;5017252;28;20032;-80
2022/11/15 14:20:27;;;;;;;5.07;0.88;;;;;;;;;;5034518;28;20478;-79
2022/11/15 14:22:56;;;;;;;5.38;1.48;;;;;;;;;;5034690;28;20100;-80
2022/11/15 14:25:23;;;;;;;7.13;1.13;;;;;;;;;;5034767;28;20029;-80
2022/11/15 14:28:08;;;;;;;2.78;0.93;;;;;;;;;;5034614;28;20022;-80
2022/11/15 14:30:34;;;;;;;7.20;1.85;;;;;;;;;;5034292;28;20503;-80
2022/11/15 14:33:00;;;;;;;5.85;1.77;;;;;;;;;;5034480;28;20025;-79
2022/11/15 14:35:26;;;;;;;5.65;1.58;;;;;;;;;;5034624;28;20033;-81
2022/11/15 14:37:52;;;;;;;7.78;2.75;;;;;;;;;;5034372;28;20464;-81
2022/11/15 14:40:20;;;;;;;6.82;2.25;;;;;;;;;;5032907;28;20029;-80
2022/11/15 14:42:46;;;;;;;4.30;2.53;;;;;;;;;;5029944;28;20021;-80
2022/11/15 14:45:14;;;;;;;6.22;2.28;;;;;;;;;;5030678;28;20059;-80
2022/11/15 14:47:41;;;;;;;5.53;2.22;;;;;;;;;;5023302;28;20500;-80
2022/11/15 14:50:11;;;;;;;6.82;1.77;;;;;;;;;;5016272;28;20095;-81
2022/11/15 14:52:37;;;;;;;8.88;2.60;;;;;;;;;;5013862;28;20030;-81